createdAt,value
2019-05-12T00:00:25.280Z,101208.23
2019-05-12T00:02:59.342Z,101205.20
2019-05-12T00:05:31.658Z,101199.89
2019-05-12T00:08:04.054Z,101205.34
2019-05-12T00:10:38.526Z,101208.06
2019-05-12T00:13:10.136Z,101207.03
2019-05-12T00:15:42.823Z,101200.98
2019-05-12T00:18:14.865Z,101212.78
2019-05-12T00:20:47.693Z,101214.36
2019-05-12T00:23:27.447Z,101224.58
2019-05-12T00:25:53.953Z,101224.14
2019-05-12T00:28:28.413Z,101223.67
2019-05-12T00:31:00.751Z,101227.02
2019-05-12T00:33:33.419Z,101220.89
2019-05-12T00:36:07.900Z,101222.56
2019-05-12T00:38:39.923Z,101224.63
2019-05-12T00:41:12.280Z,101223.42
2019-05-12T00:43:44.567Z,101222.75
2019-05-12T00:46:18.341Z,101220.31
2019-05-12T00:48:50.529Z,101216.97
2019-05-12T00:51:22.906Z,101218.43
2019-05-12T00:53:55.194Z,101218.11
2019-05-12T00:56:28.496Z,101225.67
2019-05-12T00:59:00.761Z,101218.61
2019-05-12T01:01:33.246Z,101226.30
2019-05-12T01:04:05.393Z,101224.48
2019-05-12T01:06:38.727Z,101228.89
2019-05-12T01:09:11.284Z,101232.41
2019-05-12T01:11:43.741Z,101236.00
2019-05-12T01:14:18.478Z,101230.20
2019-05-12T01:16:49.944Z,101229.50
2019-05-12T01:19:22.063Z,101223.17
2019-05-12T01:21:54.476Z,101232.17
2019-05-12T01:24:28.217Z,101225.12
2019-05-12T01:27:00.572Z,101239.74
2019-05-12T01:29:32.953Z,101247.07
2019-05-12T01:32:07.881Z,101245.39
2019-05-12T01:34:39.767Z,101252.78
2019-05-12T01:37:23.868Z,101251.53
2019-05-12T01:39:59.607Z,101254.26
2019-05-12T01:42:30.159Z,101249.81
2019-05-12T01:45:02.548Z,101249.27
2019-05-12T01:47:35.026Z,101253.77
2019-05-12T01:50:09.177Z,101249.80
2019-05-12T01:52:41.408Z,101245.98
2019-05-12T01:55:13.685Z,101249.33
2019-05-12T01:57:48.468Z,101247.42
2019-05-12T02:00:19.746Z,101241.81
2019-05-12T02:02:52.341Z,101239.84
2019-05-12T02:05:24.705Z,101242.55
2019-05-12T02:07:58.867Z,101245.72
2019-05-12T02:10:31.103Z,101240.27
2019-05-12T02:13:03.581Z,101245.39
2019-05-12T02:15:38.094Z,101250.88
2019-05-12T02:18:09.981Z,101249.39
2019-05-12T02:20:42.446Z,101251.59
2019-05-12T02:23:14.717Z,101249.95
2019-05-12T02:25:48.375Z,101259.00
2019-05-12T02:28:20.592Z,101261.78
2019-05-12T02:30:53.073Z,101257.47
2019-05-12T02:33:25.537Z,101255.01
2019-05-12T02:35:57.910Z,101269.03
2019-05-12T02:38:30.296Z,101271.23
2019-05-12T02:41:04.749Z,101269.42
2019-05-12T02:43:36.731Z,101275.83
2019-05-12T02:46:08.842Z,101275.18
2019-05-12T02:48:41.215Z,101276.95
2019-05-12T02:51:15.560Z,101278.73
2019-05-12T02:53:47.598Z,101277.48
2019-05-12T02:56:20.103Z,101272.63
2019-05-12T02:58:54.606Z,101282.28
2019-05-12T03:01:28.810Z,101280.32
2019-05-12T03:04:01.010Z,101269.21
2019-05-12T03:06:36.134Z,101283.28
2019-05-12T03:09:07.903Z,101286.56
2019-05-12T03:11:40.384Z,101286.25
2019-05-12T03:14:15.730Z,101292.13
2019-05-12T03:16:46.874Z,101289.16
2019-05-12T03:19:19.339Z,101299.33
2019-05-12T03:21:54.611Z,101294.98
2019-05-12T03:24:25.723Z,101295.44
2019-05-12T03:26:58.011Z,101290.84
2019-05-12T03:29:30.470Z,101296.26
2019-05-12T03:32:08.326Z,101291.91
2019-05-12T03:34:38.701Z,101300.17
2019-05-12T03:37:17.202Z,101304.92
2019-05-12T03:39:44.909Z,101302.95
2019-05-12T03:42:17.179Z,101297.97
2019-05-12T03:44:49.462Z,101297.89
2019-05-12T03:47:24.784Z,101292.84
2019-05-12T03:49:55.713Z,101301.30
2019-05-12T03:52:28.089Z,101300.67
2019-05-12T03:55:00.361Z,101305.80
2019-05-12T03:57:34.492Z,101305.41
2019-05-12T04:00:07.360Z,101302.70
2019-05-12T04:02:39.738Z,101308.07
2019-05-12T04:05:15.127Z,101300.48
2019-05-12T04:07:45.835Z,101298.69
2019-05-12T04:10:18.402Z,101298.50
2019-05-12T04:12:54.670Z,101308.16
2019-05-12T04:15:25.925Z,101307.95
2019-05-12T04:17:58.400Z,101301.19
2019-05-12T04:20:30.883Z,101314.69
2019-05-12T04:23:05.824Z,101305.82
2019-05-12T04:25:50.865Z,101313.50
2019-05-12T04:28:11.178Z,101312.60
2019-05-12T04:30:44.555Z,101314.38
2019-05-12T04:33:16.936Z,101312.98
2019-05-12T04:35:49.222Z,101316.02
2019-05-12T04:38:24.688Z,101315.77
2019-05-12T04:40:56.020Z,101319.36
2019-05-12T04:43:28.275Z,101323.55
2019-05-12T04:46:00.856Z,101317.92
2019-05-12T04:48:35.769Z,101323.31
2019-05-12T04:51:07.059Z,101311.87
2019-05-12T04:53:39.315Z,101319.69
2019-05-12T04:56:19.902Z,101325.00
2019-05-12T04:58:45.424Z,101319.66
2019-05-12T05:01:17.782Z,101325.74
2019-05-12T05:03:50.145Z,101319.36
2019-05-12T05:06:25.053Z,101318.39
2019-05-12T05:08:56.490Z,101320.96
2019-05-12T05:11:28.484Z,101316.13
2019-05-12T05:14:00.647Z,101321.17
2019-05-12T05:16:34.594Z,101325.19
2019-05-12T05:19:07.143Z,101327.42
2019-05-12T05:21:39.310Z,101326.92
2019-05-12T05:24:14.036Z,101327.51
2019-05-12T05:26:45.506Z,101331.19
2019-05-12T05:29:17.561Z,101328.30
2019-05-12T05:31:49.837Z,101338.52
2019-05-12T05:34:23.597Z,101336.73
2019-05-12T05:37:01.236Z,101334.05
2019-05-12T05:39:29.522Z,101334.83
2019-05-12T05:42:01.680Z,101337.29
2019-05-12T05:44:37.852Z,101343.73
2019-05-12T05:47:07.775Z,101348.09
2019-05-12T05:49:39.951Z,101341.83
2019-05-12T05:52:13.738Z,101339.88
2019-05-12T05:54:46.045Z,101341.63
2019-05-12T05:57:20.064Z,101347.55
2019-05-12T05:59:53.794Z,101358.43
2019-05-12T06:02:32.049Z,101351.07
2019-05-12T06:04:59.931Z,101352.52
2019-05-12T06:07:35.776Z,101352.39
2019-05-12T06:10:09.302Z,101350.76
2019-05-12T06:12:48.723Z,101345.86
2019-05-12T06:15:14.295Z,101354.67
2019-05-12T06:17:46.736Z,101357.48
2019-05-12T06:20:19.114Z,101353.32
2019-05-12T06:22:54.629Z,101355.54
2019-05-12T06:25:26.385Z,101354.98
2019-05-12T06:28:01.465Z,101354.71
2019-05-12T06:30:37.424Z,101352.44
2019-05-12T06:33:06.696Z,101356.58
2019-05-12T06:35:42.319Z,101351.87
2019-05-12T06:38:13.543Z,101350.77
2019-05-12T06:40:45.807Z,101346.72
2019-05-12T06:43:18.979Z,101344.98
2019-05-12T06:45:51.082Z,101348.14
2019-05-12T06:48:25.782Z,101344.75
2019-05-12T06:50:57.426Z,101344.75
2019-05-12T06:53:31.104Z,101348.97
2019-05-12T06:56:04.595Z,101346.56
2019-05-12T06:58:36.809Z,101348.92
2019-05-12T07:01:16.692Z,101352.35
2019-05-12T07:03:44.062Z,101354.56
2019-05-12T07:06:19.799Z,101356.41
2019-05-12T07:09:02.395Z,101358.10
2019-05-12T07:11:24.649Z,101353.22
2019-05-12T07:14:04.124Z,101349.16
2019-05-12T07:16:30.900Z,101350.46
2019-05-12T07:19:07.807Z,101355.30
2019-05-12T07:21:37.390Z,101349.45
2019-05-12T07:24:11.243Z,101357.14
2019-05-12T07:26:44.285Z,101350.55
2019-05-12T07:29:17.485Z,101358.23
2019-05-12T07:31:49.860Z,101354.82
2019-05-12T07:34:24.034Z,101360.11
2019-05-12T07:36:56.655Z,101356.70
2019-05-12T07:39:28.826Z,101359.11
2019-05-12T07:42:03.490Z,101367.78
2019-05-12T07:44:39.979Z,101367.12
2019-05-12T07:47:10.761Z,101372.00
2019-05-12T07:49:44.088Z,101364.34
2019-05-12T07:52:16.538Z,101367.17
2019-05-12T07:54:49.015Z,101359.72
2019-05-12T07:57:21.472Z,101361.91
2019-05-12T07:59:54.193Z,101366.77
2019-05-12T08:02:31.748Z,101362.13
2019-05-12T08:05:00.338Z,101359.92
2019-05-12T08:07:33.730Z,101363.15
2019-05-12T08:10:17.709Z,101361.11
2019-05-12T08:12:44.518Z,101368.99
2019-05-12T08:15:16.810Z,101367.57
2019-05-12T08:17:54.124Z,101371.80
2019-05-12T08:20:23.891Z,101368.78
2019-05-12T08:22:59.564Z,101368.40
2019-05-12T08:25:30.099Z,101365.99
2019-05-12T08:28:12.492Z,101363.95
2019-05-12T08:30:45.743Z,101367.41
2019-05-12T08:33:11.416Z,101365.37
2019-05-12T08:35:44.595Z,101360.70
2019-05-12T08:38:17.090Z,101360.48
2019-05-12T08:40:51.267Z,101365.13
2019-05-12T08:43:24.064Z,101361.92
2019-05-12T08:46:00.320Z,101368.19
2019-05-12T08:48:30.375Z,101365.98
2019-05-12T08:51:07.089Z,101364.56
2019-05-12T08:53:36.662Z,101360.30
2019-05-12T08:56:13.019Z,101353.33
2019-05-12T08:58:48.297Z,101359.36
2019-05-12T09:01:20.377Z,101362.53
2019-05-12T09:03:53.241Z,101363.16
2019-05-12T09:06:25.192Z,101364.43
2019-05-12T09:08:57.647Z,101362.98
2019-05-12T09:11:30.023Z,101358.66
2019-05-12T09:14:03.548Z,101364.86
2019-05-12T09:16:36.513Z,101361.00
2019-05-12T09:19:10.068Z,101365.06
2019-05-12T09:21:44.304Z,101362.55
2019-05-12T09:24:21.989Z,101366.81
2019-05-12T09:26:50.412Z,101354.90
2019-05-12T09:29:25.126Z,101355.92
2019-05-12T09:31:59.348Z,101360.14
2019-05-12T09:34:30.811Z,101358.59
2019-05-12T09:37:03.985Z,101358.63
2019-05-12T09:39:42.875Z,101358.01
2019-05-12T09:42:10.490Z,101362.17
2019-05-12T09:44:43.920Z,101358.91
2019-05-12T09:47:23.065Z,101352.00
2019-05-12T09:49:49.972Z,101356.63
2019-05-12T09:52:26.988Z,101362.08
2019-05-12T09:54:56.053Z,101357.66
2019-05-12T09:57:32.361Z,101355.80
2019-05-12T10:00:04.423Z,101359.88
2019-05-12T10:02:38.497Z,101358.27
2019-05-12T10:05:10.979Z,101361.29
2019-05-12T10:07:44.526Z,101364.17
2019-05-12T10:10:16.765Z,101368.17
2019-05-12T10:12:50.603Z,101371.46
2019-05-12T10:15:24.742Z,101370.30
2019-05-12T10:18:00.215Z,101368.14
2019-05-12T10:20:35.363Z,101367.09
2019-05-12T10:23:04.994Z,101361.87
2019-05-12T10:25:37.357Z,101365.72
2019-05-12T10:28:12.827Z,101359.03
2019-05-12T10:30:47.148Z,101359.28
2019-05-12T10:33:17.859Z,101355.64
2019-05-12T10:35:50.339Z,101363.53
2019-05-12T10:38:24.166Z,101361.75
2019-05-12T10:40:56.422Z,101360.59
2019-05-12T10:43:28.692Z,101355.63
2019-05-12T10:46:01.154Z,101351.37
2019-05-12T10:48:33.974Z,101352.43
2019-05-12T10:51:06.328Z,101350.71
2019-05-12T10:53:38.705Z,101346.00
2019-05-12T10:56:11.281Z,101345.63
2019-05-12T10:58:44.017Z,101346.00
2019-05-12T11:01:16.338Z,101348.94
2019-05-12T11:03:50.811Z,101348.84
2019-05-12T11:06:24.275Z,101345.20
2019-05-12T11:08:56.515Z,101345.95
2019-05-12T11:11:32.882Z,101352.42
2019-05-12T11:14:03.969Z,101352.09
2019-05-12T11:16:36.215Z,101352.53
2019-05-12T11:19:10.654Z,101354.70
2019-05-12T11:21:44.276Z,101353.77
2019-05-12T11:24:16.508Z,101344.31
2019-05-12T11:26:48.888Z,101346.63
2019-05-12T11:29:23.370Z,101340.07
2019-05-12T11:31:55.582Z,101327.81
2019-05-12T11:34:27.637Z,101336.41
2019-05-12T11:37:00.026Z,101324.70
2019-05-12T11:39:36.676Z,101333.58
2019-05-12T11:42:06.193Z,101324.51
2019-05-12T11:44:39.800Z,101338.07
2019-05-12T11:47:17.001Z,101335.56
2019-05-12T11:49:46.203Z,101335.97
2019-05-12T11:52:19.493Z,101331.59
2019-05-12T11:54:53.746Z,101326.45
2019-05-12T11:57:30.150Z,101326.41
2019-05-12T12:00:02.279Z,101327.71
2019-05-12T12:02:34.267Z,101314.69
2019-05-12T12:05:07.473Z,101321.03
2019-05-12T12:07:50.605Z,101319.94
2019-05-12T12:10:14.248Z,101324.76
2019-05-12T12:12:49.302Z,101321.86
2019-05-12T12:15:25.630Z,101322.08
2019-05-12T12:17:54.500Z,101323.83
2019-05-12T12:20:26.977Z,101320.25
2019-05-12T12:23:00.128Z,101327.52
2019-05-12T12:25:34.204Z,101321.44
2019-05-12T12:28:06.741Z,101328.84
2019-05-12T12:30:39.039Z,101333.14
2019-05-12T12:33:11.512Z,101334.20
2019-05-12T12:35:44.911Z,101340.65
2019-05-12T12:38:17.375Z,101338.78
2019-05-12T12:40:49.663Z,101354.05
2019-05-12T12:43:21.918Z,101358.38
2019-05-12T12:46:01.676Z,101359.73
2019-05-12T12:48:33.933Z,101367.62
2019-05-12T12:51:06.430Z,101366.20
2019-05-12T12:53:38.904Z,101360.10
2019-05-12T12:56:16.150Z,101362.83
2019-05-12T12:58:45.395Z,101358.66
2019-05-12T13:01:26.872Z,101353.95
2019-05-12T13:03:53.595Z,101351.83
2019-05-12T13:06:25.981Z,101358.50
2019-05-12T13:08:58.476Z,101355.11
2019-05-12T13:11:34.838Z,101362.82
2019-05-12T13:14:05.576Z,101361.28
2019-05-12T13:16:38.056Z,101361.94
2019-05-12T13:19:13.179Z,101369.63
2019-05-12T13:21:44.223Z,101379.83
2019-05-12T13:24:16.714Z,101384.27
2019-05-12T13:26:49.194Z,101385.39
2019-05-12T13:29:26.320Z,101391.23
2019-05-12T13:31:55.375Z,101387.83
2019-05-12T13:34:28.946Z,101387.32
2019-05-12T13:37:03.466Z,101396.13
2019-05-12T13:39:35.678Z,101393.66
2019-05-12T13:42:10.284Z,101398.06
2019-05-12T13:44:43.612Z,101406.09
2019-05-12T13:47:15.848Z,101400.66
2019-05-12T13:49:48.242Z,101399.28
2019-05-12T13:52:26.286Z,101403.46
2019-05-12T13:54:54.310Z,101404.47
2019-05-12T13:57:26.597Z,101398.44
2019-05-12T14:00:06.457Z,101407.68
2019-05-12T14:02:33.601Z,101413.13
2019-05-12T14:05:11.314Z,101424.66
2019-05-12T14:07:40.504Z,101413.00
2019-05-12T14:10:14.021Z,101422.54
2019-05-12T14:12:46.575Z,101416.95
2019-05-12T14:15:19.052Z,101427.48
2019-05-12T14:17:53.945Z,101423.77
2019-05-12T14:20:25.647Z,101422.17
2019-05-12T14:22:57.799Z,101419.58
2019-05-12T14:25:32.282Z,101431.84
2019-05-12T14:28:05.401Z,101439.75
2019-05-12T14:30:41.397Z,101439.12
2019-05-12T14:33:12.022Z,101436.15
2019-05-12T14:35:46.004Z,101437.20
2019-05-12T14:38:19.415Z,101439.02
2019-05-12T14:40:53.654Z,101435.58
2019-05-12T14:43:25.915Z,101441.18
2019-05-12T14:46:00.320Z,101446.52
2019-05-12T14:48:33.573Z,101448.69
2019-05-12T14:51:05.810Z,101448.69
2019-05-12T14:53:39.719Z,101446.02
2019-05-12T14:56:14.054Z,101443.65
2019-05-12T14:58:50.164Z,101442.95
2019-05-12T15:01:19.709Z,101459.87
2019-05-12T15:03:53.533Z,101451.36
2019-05-12T15:06:29.583Z,101459.36
2019-05-12T15:08:59.582Z,101466.98
2019-05-12T15:11:34.062Z,101472.79
2019-05-12T15:14:05.680Z,101468.88
2019-05-12T15:16:40.711Z,101465.14
2019-05-12T15:19:13.917Z,101475.53
2019-05-12T15:21:45.874Z,101481.93
2019-05-12T15:24:19.119Z,101486.30
2019-05-12T15:26:57.461Z,101484.30
2019-05-12T15:29:25.139Z,101486.21
2019-05-12T15:31:57.521Z,101483.69
2019-05-12T15:34:29.780Z,101475.91
2019-05-12T15:37:03.978Z,101478.08
2019-05-12T15:39:35.858Z,101475.81
2019-05-12T15:42:08.028Z,101473.73
2019-05-12T15:44:40.420Z,101470.66
2019-05-12T15:47:12.898Z,101471.60
2019-05-12T15:49:45.358Z,101473.33
2019-05-12T15:52:17.626Z,101470.66
2019-05-12T15:54:51.401Z,101475.39
2019-05-12T15:57:24.390Z,101477.55
2019-05-12T15:59:56.820Z,101476.83
2019-05-12T16:02:29.091Z,101481.05
2019-05-12T16:05:04.148Z,101478.02
2019-05-12T16:07:39.571Z,101479.64
2019-05-12T16:10:11.335Z,101484.25
2019-05-12T16:12:43.957Z,101479.86
2019-05-12T16:15:19.127Z,101477.28
2019-05-12T16:17:50.205Z,101469.59
2019-05-12T16:20:22.471Z,101474.61
2019-05-12T16:22:54.958Z,101479.00
2019-05-12T16:25:30.655Z,101469.71
2019-05-12T16:28:01.748Z,101469.53
2019-05-12T16:30:34.127Z,101467.99
2019-05-12T16:33:06.580Z,101463.28
2019-05-12T16:35:39.057Z,101464.55
2019-05-12T16:38:17.207Z,101470.34
2019-05-12T16:40:49.618Z,101472.11
2019-05-12T16:43:19.271Z,101467.53
2019-05-12T16:45:53.642Z,101467.25
2019-05-12T16:48:32.227Z,101461.89
2019-05-12T16:50:59.255Z,101459.40
2019-05-12T16:53:31.630Z,101454.55
2019-05-12T16:56:04.323Z,101460.34
2019-05-12T16:58:36.589Z,101459.28
2019-05-12T17:01:09.064Z,101454.56
2019-05-12T17:03:41.449Z,101458.58
2019-05-12T17:06:15.744Z,101454.90
2019-05-12T17:08:48.322Z,101458.23
2019-05-12T17:11:30.013Z,101451.52
2019-05-12T17:14:00.766Z,101455.50
2019-05-12T17:16:35.397Z,101453.81
2019-05-12T17:19:06.096Z,101460.23
2019-05-12T17:21:36.353Z,101461.41
2019-05-12T17:24:08.613Z,101450.00
2019-05-12T17:26:40.905Z,101446.52
2019-05-12T17:29:13.869Z,101448.44
2019-05-12T17:31:46.148Z,101449.00
2019-05-12T17:34:18.532Z,101450.51
2019-05-12T17:36:56.091Z,101442.75
2019-05-12T17:39:29.362Z,101442.69
2019-05-12T17:41:58.509Z,101453.91
2019-05-12T17:44:35.988Z,101451.98
2019-05-12T17:47:04.810Z,101459.73
2019-05-12T17:49:39.018Z,101462.83
2019-05-12T17:52:15.794Z,101457.80
2019-05-12T17:54:44.886Z,101464.81
2019-05-12T17:57:19.869Z,101472.86
2019-05-12T17:59:51.188Z,101470.65
2019-05-12T18:02:23.759Z,101468.56
2019-05-12T18:05:01.247Z,101477.48
2019-05-12T18:07:29.862Z,101482.44
2019-05-12T18:10:04.186Z,101479.03
2019-05-12T18:12:44.123Z,101480.20
2019-05-12T18:15:10.543Z,101480.20
2019-05-12T18:17:45.297Z,101481.37
2019-05-12T18:20:17.146Z,101482.17
2019-05-12T18:22:49.319Z,101473.45
2019-05-12T18:25:30.177Z,101469.92
2019-05-12T18:27:55.486Z,101466.47
2019-05-12T18:30:27.962Z,101470.86
2019-05-12T18:33:04.635Z,101477.71
2019-05-12T18:35:34.365Z,101481.25
2019-05-12T18:38:07.785Z,101481.73
2019-05-12T18:40:40.549Z,101480.91
2019-05-12T18:43:14.150Z,101477.39
2019-05-12T18:45:48.632Z,101473.48
2019-05-12T18:48:22.234Z,101467.66
2019-05-12T18:50:54.653Z,101470.08
2019-05-12T18:53:31.578Z,101468.52
2019-05-12T18:56:00.834Z,101475.94
2019-05-12T18:58:35.457Z,101470.34
2019-05-12T19:01:08.232Z,101473.80
2019-05-12T19:03:49.676Z,101466.57
2019-05-12T19:06:14.631Z,101471.73
2019-05-12T19:08:48.045Z,101473.91
2019-05-12T19:11:25.466Z,101470.91
2019-05-12T19:13:57.157Z,101471.41
2019-05-12T19:16:28.211Z,101471.81
2019-05-12T19:19:01.507Z,101468.33
2019-05-12T19:21:33.982Z,101464.50
2019-05-12T19:24:08.799Z,101464.36
2019-05-12T19:26:40.495Z,101458.41
2019-05-12T19:29:14.096Z,101459.41
2019-05-12T19:31:52.363Z,101447.02
2019-05-12T19:34:25.188Z,101447.41
2019-05-12T19:36:54.285Z,101456.79
2019-05-12T19:39:26.765Z,101454.77
2019-05-12T19:41:58.919Z,101459.58
2019-05-12T19:44:31.414Z,101470.56
2019-05-12T19:47:03.886Z,101456.00
2019-05-12T19:49:46.602Z,101455.65
2019-05-12T19:52:10.156Z,101459.94
2019-05-12T19:54:44.326Z,101446.94
2019-05-12T19:57:21.902Z,101454.75
2019-05-12T19:59:52.455Z,101458.33
2019-05-12T20:02:24.810Z,101453.61
2019-05-12T20:04:56.976Z,101448.59
2019-05-12T20:07:29.334Z,101448.13
2019-05-12T20:10:04.448Z,101446.97
2019-05-12T20:12:35.720Z,101446.73
2019-05-12T20:15:08.198Z,101446.06
2019-05-12T20:17:40.674Z,101440.47
2019-05-12T20:20:13.714Z,101446.15
2019-05-12T20:22:46.243Z,101445.56
2019-05-12T20:25:18.617Z,101444.41
2019-05-12T20:27:55.713Z,101437.84
2019-05-12T20:30:28.001Z,101434.13
2019-05-12T20:32:58.506Z,101427.13
2019-05-12T20:35:30.863Z,101424.10
2019-05-12T20:38:04.152Z,101428.53
2019-05-12T20:40:37.577Z,101424.95
2019-05-12T20:43:12.257Z,101421.13
2019-05-12T20:45:45.801Z,101420.41
2019-05-12T20:48:19.728Z,101414.95
2019-05-12T20:50:52.893Z,101421.95
2019-05-12T20:53:31.883Z,101413.91
2019-05-12T20:55:59.278Z,101417.52
2019-05-12T20:58:36.486Z,101421.13
2019-05-12T21:01:05.990Z,101431.12
2019-05-12T21:03:39.716Z,101424.59
2019-05-12T21:06:14.417Z,101426.23
2019-05-12T21:08:53.271Z,101427.95
2019-05-12T21:11:20.811Z,101422.67
2019-05-12T21:13:54.546Z,101433.77
2019-05-12T21:16:34.366Z,101438.55
2019-05-12T21:19:07.604Z,101456.93
2019-05-12T21:21:38.359Z,101458.13
2019-05-12T21:24:09.234Z,101447.14
2019-05-12T21:26:43.886Z,101443.77
2019-05-12T21:29:19.128Z,101454.83
2019-05-12T21:31:49.532Z,101456.81
2019-05-12T21:34:23.380Z,101460.66
2019-05-12T21:36:59.071Z,101454.57
2019-05-12T21:39:30.240Z,101455.97
2019-05-12T21:42:03.999Z,101445.72
2019-05-12T21:44:36.419Z,101446.87
2019-05-12T21:47:10.597Z,101446.70
2019-05-12T21:49:48.142Z,101443.91
2019-05-12T21:52:16.906Z,101441.72
2019-05-12T21:54:49.404Z,101436.77
2019-05-12T21:57:27.508Z,101433.01
2019-05-12T21:59:56.094Z,101424.86
2019-05-12T22:02:30.777Z,101428.12
2019-05-12T22:05:04.164Z,101433.34
2019-05-12T22:07:39.822Z,101434.20
2019-05-12T22:10:10.401Z,101434.78
2019-05-12T22:12:44.080Z,101430.47
2019-05-12T22:15:21.401Z,101428.88
2019-05-12T22:18:04.622Z,101422.38
2019-05-12T22:20:36.564Z,101422.23
2019-05-12T22:23:11.834Z,101420.48
2019-05-12T22:25:43.660Z,101418.12
2019-05-12T22:28:16.176Z,101420.48
2019-05-12T22:30:48.625Z,101420.25
2019-05-12T22:33:21.322Z,101426.66
2019-05-12T22:36:02.776Z,101428.30
2019-05-12T22:38:27.606Z,101426.60
2019-05-12T22:41:00.291Z,101426.34
2019-05-12T22:43:40.814Z,101427.48
2019-05-12T22:46:07.087Z,101421.77
2019-05-12T22:48:40.688Z,101428.50
2019-05-12T22:51:19.684Z,101420.70
2019-05-12T22:53:47.183Z,101420.90
2019-05-12T22:56:19.556Z,101427.56
2019-05-12T22:58:59.898Z,101426.78
2019-05-12T23:01:25.921Z,101430.98
2019-05-12T23:03:58.417Z,101425.27
2019-05-12T23:06:33.480Z,101418.28
2019-05-12T23:09:06.584Z,101419.23
2019-05-12T23:11:38.816Z,101420.17
2019-05-12T23:14:12.796Z,101416.23
2019-05-12T23:16:45.399Z,101413.59
2019-05-12T23:19:17.874Z,101413.87
2019-05-12T23:21:57.155Z,101411.22
2019-05-12T23:24:24.363Z,101405.97
2019-05-12T23:26:56.854Z,101404.72
2019-05-12T23:29:31.007Z,101400.88
2019-05-12T23:32:07.362Z,101408.54
2019-05-12T23:34:37.355Z,101399.57
2019-05-12T23:37:09.919Z,101405.73
2019-05-12T23:39:44.237Z,101407.03
2019-05-12T23:42:16.630Z,101400.97
2019-05-12T23:44:49.093Z,101399.31
2019-05-12T23:47:23.677Z,101402.20
2019-05-12T23:49:55.903Z,101396.49
2019-05-12T23:52:28.071Z,101394.84
2019-05-12T23:55:00.453Z,101401.44
2019-05-12T23:57:33.800Z,101393.88
